^^
Station Historical Data
Daily Summary for February 4, 2018 Units:  Both    English   Metric
« Previous Day
Next Day »
Daily Weekly Monthly Yearly Custom
  High: Low: Average:
Temperature: TemperatureF °F /  -17.8 °C 67.6 °F /  19.8 °C 77.4 °F /  25.2 °C
Dew Point: DewpointF °F /  -17.8 °C 46.9 °F /  8.3 °C 53.2 °F /  11.8 °C
Humidity: Humidity% 24% 45%
Wind Speed: WindSpeedMPHmph /  0km/h - 2.2mph /  3.5km/h
Wind Gust: WindSpeedGustMPHmph /  0km/h - -
Wind- - ESE
Pressure: PressureIn in /  0 hPa 29.54 in /  1000.2 hPa -
Precipitation: 0.00 in /  0 mm    
Historical Graphs
 
 
Tabular Data for February 4, 2018
Time Temperature Dew Point Pressure Wind Wind Speed Wind Gust Humidity Rainfall Rate (Hourly) solar Conditions
TemperatureF °F /  -17.8 °C DewpointF °F /  -17.8 °C PressureInin /  0hPa Calm     Humidity% HourlyPrecipInin /  0mm SolarRadiationWatts/m^2 W/m2 Conditions
00:01 71.2 °F /  21.8 °C 57.9 °F /  14.4 °C 29.73in /  1006.7hPa Calm   1.0mph /  1.6km/h 63% 0.00in /  0mm 0.0 W/m2
00:06 71.2 °F /  21.8 °C 57.9 °F /  14.4 °C 29.72in /  1006.3hPa Calm   1.0mph /  1.6km/h 63% 0.00in /  0mm 0.0 W/m2
00:11 71.2 °F /  21.8 °C 57.9 °F /  14.4 °C 29.73in /  1006.7hPa SE 2.0mph /  3.2km/h 2.0mph /  3.2km/h 63% 0.00in /  0mm 0.0 W/m2
00:16 71.2 °F /  21.8 °C 57.9 °F /  14.4 °C 29.73in /  1006.7hPa Calm   2.0mph /  3.2km/h 63% 0.00in /  0mm 0.0 W/m2
00:21 71.2 °F /  21.8 °C 57.9 °F /  14.4 °C 29.72in /  1006.3hPa Calm   2.0mph /  3.2km/h 63% 0.00in /  0mm 0.0 W/m2
00:26 71.2 °F /  21.8 °C 57.9 °F /  14.4 °C 29.72in /  1006.3hPa ENE 0.9mph /  1.4km/h 2.0mph /  3.2km/h 63% 0.00in /  0mm 0.0 W/m2
00:31 71.2 °F /  21.8 °C 57.9 °F /  14.4 °C 29.72in /  1006.3hPa Calm   2.0mph /  3.2km/h 63% 0.00in /  0mm 0.0 W/m2
00:37 71.1 °F /  21.7 °C 57.7 °F /  14.3 °C 29.72in /  1006.3hPa Calm   2.0mph /  3.2km/h 63% 0.00in /  0mm 0.0 W/m2
00:42 71.1 °F /  21.7 °C 57.7 °F /  14.3 °C 29.73in /  1006.7hPa SE 0.9mph /  1.4km/h 4.0mph /  6.4km/h 63% 0.00in /  0mm 0.0 W/m2
00:47 71.1 °F /  21.7 °C 57.7 °F /  14.3 °C 29.73in /  1006.7hPa East 0.9mph /  1.4km/h 3.0mph /  4.8km/h 63% 0.00in /  0mm 0.0 W/m2
00:52 71.1 °F /  21.7 °C 58.6 °F /  14.8 °C 29.73in /  1006.7hPa ENE 4.0mph /  6.4km/h 9.0mph /  14.5km/h 65% 0.00in /  0mm 0.0 W/m2
00:57 70.9 °F /  21.6 °C 58.5 °F /  14.7 °C 29.73in /  1006.7hPa NE 2.9mph /  4.7km/h 8.0mph /  12.9km/h 65% 0.00in /  0mm 0.0 W/m2
01:02 70.5 °F /  21.4 °C 58.1 °F /  14.5 °C 29.73in /  1006.7hPa Calm   7.0mph /  11.3km/h 65% 0.00in /  0mm 0.0 W/m2
01:07 70.2 °F /  21.2 °C 57.9 °F /  14.4 °C 29.73in /  1006.7hPa ESE 2.0mph /  3.2km/h 5.0mph /  8km/h 65% 0.00in /  0mm 0.0 W/m2
01:12 70.0 °F /  21.1 °C 57.2 °F /  14 °C 29.73in /  1006.7hPa East 6.9mph /  11.1km/h 9.0mph /  14.5km/h 64% 0.00in /  0mm 0.0 W/m2
01:18 69.6 °F /  20.9 °C 56.5 °F /  13.6 °C 29.73in /  1006.7hPa ESE 6.0mph /  9.7km/h 6.0mph /  9.7km/h 63% 0.00in /  0mm 0.0 W/m2
01:23 69.3 °F /  20.7 °C 55.8 °F /  13.2 °C 29.73in /  1006.7hPa NNE 4.9mph /  7.9km/h 7.0mph /  11.3km/h 62% 0.00in /  0mm 0.0 W/m2
01:29 68.7 °F /  20.4 °C 55.2 °F /  12.9 °C 29.73in /  1006.7hPa Calm   4.0mph /  6.4km/h 62% 0.00in /  0mm 0.0 W/m2
01:34 68.7 °F /  20.4 °C 55.2 °F /  12.9 °C 29.73in /  1006.7hPa NE 2.9mph /  4.7km/h 8.0mph /  12.9km/h 62% 0.00in /  0mm 0.0 W/m2
01:39 68.5 °F /  20.3 °C 55.0 °F /  12.8 °C 29.73in /  1006.7hPa NNE 2.0mph /  3.2km/h 5.0mph /  8km/h 62% 0.00in /  0mm 0.0 W/m2
01:44 68.5 °F /  20.3 °C 54.5 °F /  12.5 °C 29.73in /  1006.7hPa NE 2.0mph /  3.2km/h 4.0mph /  6.4km/h 61% 0.00in /  0mm 0.0 W/m2
01:49 68.4 °F /  20.2 °C 54.3 °F /  12.4 °C 29.72in /  1006.3hPa ENE 4.0mph /  6.4km/h 6.0mph /  9.7km/h 61% 0.00in /  0mm 0.0 W/m2
01:54 68.4 °F /  20.2 °C 54.3 °F /  12.4 °C 29.72in /  1006.3hPa ESE 4.0mph /  6.4km/h 8.0mph /  12.9km/h 61% 0.00in /  0mm 0.0 W/m2
01:59 68.4 °F /  20.2 °C 54.9 °F /  12.7 °C 29.72in /  1006.3hPa East 4.9mph /  7.9km/h 6.0mph /  9.7km/h 62% 0.00in /  0mm 0.0 W/m2
02:04 68.2 °F /  20.1 °C 54.7 °F /  12.6 °C 29.71in /  1006hPa East 2.0mph /  3.2km/h 2.0mph /  3.2km/h 62% 0.00in /  0mm 0.0 W/m2
02:10 68.2 °F /  20.1 °C 55.0 °F /  12.8 °C 29.71in /  1006hPa NNW 0.9mph /  1.4km/h 2.0mph /  3.2km/h 63% 0.00in /  0mm 0.0 W/m2
02:15 68.2 °F /  20.1 °C 54.7 °F /  12.6 °C 29.70in /  1005.6hPa NNW 0.9mph /  1.4km/h 4.0mph /  6.4km/h 62% 0.00in /  0mm 0.0 W/m2
02:20 68.2 °F /  20.1 °C 54.7 °F /  12.6 °C 29.70in /  1005.6hPa Calm   1.0mph /  1.6km/h 62% 0.00in /  0mm 0.0 W/m2
02:25 68.0 °F /  20 °C 54.5 °F /  12.5 °C 29.70in /  1005.6hPa Calm   1.0mph /  1.6km/h 62% 0.00in /  0mm 0.0 W/m2
02:30 68.0 °F /  20 °C 54.5 °F /  12.5 °C 29.70in /  1005.6hPa Calm     62% 0.00in /  0mm 0.0 W/m2
02:35 68.2 °F /  20.1 °C 54.1 °F /  12.3 °C 29.69in /  1005.3hPa Calm   1.0mph /  1.6km/h 61% 0.00in /  0mm 0.0 W/m2
02:40 68.2 °F /  20.1 °C 53.8 °F /  12.1 °C 29.69in /  1005.3hPa East 2.0mph /  3.2km/h 2.0mph /  3.2km/h 60% 0.00in /  0mm 0.0 W/m2
02:45 68.4 °F /  20.2 °C 53.1 °F /  11.7 °C 29.69in /  1005.3hPa Calm   3.0mph /  4.8km/h 58% 0.00in /  0mm 0.0 W/m2
02:50 68.7 °F /  20.4 °C 50.9 °F /  10.5 °C 29.68in /  1005hPa Calm   8.0mph /  12.9km/h 53% 0.00in /  0mm 0.0 W/m2
02:56 69.3 °F /  20.7 °C 49.8 °F /  9.9 °C 29.68in /  1005hPa NNW 2.9mph /  4.7km/h 6.0mph /  9.7km/h 50% 0.00in /  0mm 0.0 W/m2
03:01 70.0 °F /  21.1 °C 50.5 °F /  10.3 °C 29.67in /  1004.6hPa SE 0.9mph /  1.4km/h 3.0mph /  4.8km/h 50% 0.00in /  0mm 0.0 W/m2
03:06 70.3 °F /  21.3 °C 50.9 °F /  10.5 °C 29.67in /  1004.6hPa West 2.9mph /  4.7km/h 5.0mph /  8km/h 50% 0.00in /  0mm 0.0 W/m2
03:11 70.5 °F /  21.4 °C 51.4 °F /  10.8 °C 29.67in /  1004.6hPa Calm   1.0mph /  1.6km/h 51% 0.00in /  0mm 0.0 W/m2
03:16 70.5 °F /  21.4 °C 51.4 °F /  10.8 °C 29.67in /  1004.6hPa Calm   2.0mph /  3.2km/h 51% 0.00in /  0mm 0.0 W/m2
03:21 70.5 °F /  21.4 °C 52.0 °F /  11.1 °C 29.67in /  1004.6hPa Calm   1.0mph /  1.6km/h 52% 0.00in /  0mm 0.0 W/m2
03:26 70.5 °F /  21.4 °C 51.4 °F /  10.8 °C 29.67in /  1004.6hPa Calm     51% 0.00in /  0mm 0.0 W/m2
03:31 70.3 °F /  21.3 °C 51.4 °F /  10.8 °C 29.66in /  1004.3hPa Calm   3.0mph /  4.8km/h 51% 0.00in /  0mm 0.0 W/m2
03:37 70.3 °F /  21.3 °C 51.8 °F /  11 °C 29.66in /  1004.3hPa Calm     52% 0.00in /  0mm 0.0 W/m2
03:42 70.3 °F /  21.3 °C 51.8 °F /  11 °C 29.66in /  1004.3hPa Calm     52% 0.00in /  0mm 0.0 W/m2
03:47 70.2 °F /  21.2 °C 51.8 °F /  11 °C 29.65in /  1003.9hPa Calm   1.0mph /  1.6km/h 52% 0.00in /  0mm 0.0 W/m2
03:52 70.2 °F /  21.2 °C 51.8 °F /  11 °C 29.65in /  1003.9hPa Calm   2.0mph /  3.2km/h 52% 0.00in /  0mm 0.0 W/m2
03:57 70.3 °F /  21.3 °C 51.8 °F /  11 °C 29.65in /  1003.9hPa Calm   3.0mph /  4.8km/h 52% 0.00in /  0mm 0.0 W/m2
04:02 70.3 °F /  21.3 °C 51.8 °F /  11 °C 29.65in /  1003.9hPa Calm     52% 0.00in /  0mm 0.0 W/m2
04:07 70.3 °F /  21.3 °C 51.8 °F /  11 °C 29.65in /  1003.9hPa Calm     52% 0.00in /  0mm 0.0 W/m2
04:12 70.3 °F /  21.3 °C 50.9 °F /  10.5 °C 29.66in /  1004.3hPa Calm   2.0mph /  3.2km/h 50% 0.00in /  0mm 0.0 W/m2
04:18 70.9 °F /  21.6 °C 48.6 °F /  9.2 °C 29.66in /  1004.3hPa SE 8.1mph /  13km/h 11.0mph /  17.7km/h 45% 0.00in /  0mm 0.0 W/m2
04:23 72.0 °F /  22.2 °C 48.9 °F /  9.4 °C 29.66in /  1004.3hPa SSE 2.0mph /  3.2km/h 9.0mph /  14.5km/h 44% 0.00in /  0mm 0.0 W/m2
04:28 72.7 °F /  22.6 °C 48.2 °F /  9 °C 29.66in /  1004.3hPa SE 4.0mph /  6.4km/h 5.0mph /  8km/h 42% 0.00in /  0mm 0.0 W/m2
04:33 73.2 °F /  22.9 °C 48.7 °F /  9.3 °C 29.66in /  1004.3hPa SE 4.0mph /  6.4km/h 10.0mph /  16.1km/h 42% 0.00in /  0mm 0.0 W/m2
04:38 73.6 °F /  23.1 °C 49.1 °F /  9.5 °C 29.66in /  1004.3hPa NE 2.9mph /  4.7km/h 6.0mph /  9.7km/h 42% 0.00in /  0mm 0.0 W/m2
04:43 73.8 °F /  23.2 °C 49.3 °F /  9.6 °C 29.66in /  1004.3hPa ESE 4.0mph /  6.4km/h 9.0mph /  14.5km/h 42% 0.00in /  0mm 0.0 W/m2
04:48 73.8 °F /  23.2 °C 49.3 °F /  9.6 °C 29.66in /  1004.3hPa ENE 6.9mph /  11.1km/h 7.0mph /  11.3km/h 42% 0.00in /  0mm 0.0 W/m2
04:53 73.2 °F /  22.9 °C 51.8 °F /  11 °C 29.67in /  1004.6hPa NE 6.0mph /  9.7km/h 12.0mph /  19.3km/h 47% 0.00in /  0mm 0.0 W/m2
04:58 72.5 °F /  22.5 °C 52.3 °F /  11.3 °C 29.66in /  1004.3hPa NE 2.0mph /  3.2km/h 6.0mph /  9.7km/h 49% 0.00in /  0mm 0.0 W/m2
05:03 72.0 °F /  22.2 °C 52.3 °F /  11.3 °C 29.67in /  1004.6hPa SE 0.9mph /  1.4km/h 3.0mph /  4.8km/h 50% 0.00in /  0mm 0.0 W/m2
05:08 71.4 °F /  21.9 °C 52.9 °F /  11.6 °C 29.67in /  1004.6hPa ESE 0.9mph /  1.4km/h 6.0mph /  9.7km/h 52% 0.00in /  0mm 0.0 W/m2
05:13 71.1 °F /  21.7 °C 53.1 °F /  11.7 °C 29.67in /  1004.6hPa ENE 4.9mph /  7.9km/h 6.0mph /  9.7km/h 53% 0.00in /  0mm 0.0 W/m2
05:18 70.7 °F /  21.5 °C 53.2 °F /  11.8 °C 29.67in /  1004.6hPa East 4.0mph /  6.4km/h 5.0mph /  8km/h 54% 0.00in /  0mm 0.0 W/m2
05:24 70.3 °F /  21.3 °C 52.9 °F /  11.6 °C 29.67in /  1004.6hPa NNE 2.0mph /  3.2km/h 6.0mph /  9.7km/h 54% 0.00in /  0mm 0.0 W/m2
05:29 70.0 °F /  21.1 °C 53.1 °F /  11.7 °C 29.67in /  1004.6hPa NE 2.0mph /  3.2km/h 7.0mph /  11.3km/h 55% 0.00in /  0mm 0.0 W/m2
05:35 69.6 °F /  20.9 °C 53.2 °F /  11.8 °C 29.67in /  1004.6hPa South 0.9mph /  1.4km/h 3.0mph /  4.8km/h 56% 0.00in /  0mm 0.0 W/m2
05:40 69.4 °F /  20.8 °C 53.1 °F /  11.7 °C 29.67in /  1004.6hPa Calm   7.0mph /  11.3km/h 56% 0.00in /  0mm 0.0 W/m2
05:45 69.3 °F /  20.7 °C 52.9 °F /  11.6 °C 29.67in /  1004.6hPa ENE 4.9mph /  7.9km/h 5.0mph /  8km/h 56% 0.00in /  0mm 0.0 W/m2
05:50 69.3 °F /  20.7 °C 52.9 °F /  11.6 °C 29.68in /  1005hPa NE 6.0mph /  9.7km/h 7.0mph /  11.3km/h 56% 0.00in /  0mm 0.0 W/m2
05:55 69.3 °F /  20.7 °C 52.9 °F /  11.6 °C 29.68in /  1005hPa North 4.9mph /  7.9km/h 8.0mph /  12.9km/h 56% 0.00in /  0mm 0.0 W/m2
06:00 69.1 °F /  20.6 °C 52.7 °F /  11.5 °C 29.68in /  1005hPa NE 0.9mph /  1.4km/h 9.0mph /  14.5km/h 56% 0.00in /  0mm 0.0 W/m2
06:06 69.1 °F /  20.6 °C 53.2 °F /  11.8 °C 29.68in /  1005hPa NE 4.9mph /  7.9km/h 10.0mph /  16.1km/h 57% 0.00in /  0mm 0.0 W/m2
06:11 68.7 °F /  20.4 °C 52.9 °F /  11.6 °C 29.68in /  1005hPa East 6.0mph /  9.7km/h 9.0mph /  14.5km/h 57% 0.00in /  0mm 0.0 W/m2
06:16 68.7 °F /  20.4 °C 53.4 °F /  11.9 °C 29.68in /  1005hPa Calm   6.0mph /  9.7km/h 58% 0.00in /  0mm 0.0 W/m2
06:22 68.5 °F /  20.3 °C 53.6 °F /  12 °C 29.68in /  1005hPa ESE 0.9mph /  1.4km/h 5.0mph /  8km/h 59% 0.00in /  0mm 0.0 W/m2
06:27 68.4 °F /  20.2 °C 53.4 °F /  11.9 °C 29.68in /  1005hPa NE 0.9mph /  1.4km/h 5.0mph /  8km/h 59% 0.00in /  0mm 0.0 W/m2
06:32 68.4 °F /  20.2 °C 53.4 °F /  11.9 °C 29.68in /  1005hPa NE 0.9mph /  1.4km/h 7.0mph /  11.3km/h 59% 0.00in /  0mm 0.0 W/m2
06:38 68.2 °F /  20.1 °C 53.8 °F /  12.1 °C 29.68in /  1005hPa NE 6.0mph /  9.7km/h 8.0mph /  12.9km/h 60% 0.00in /  0mm 0.0 W/m2
06:43 68.0 °F /  20 °C 53.6 °F /  12 °C 29.68in /  1005hPa ESE 2.0mph /  3.2km/h 6.0mph /  9.7km/h 60% 0.00in /  0mm 7.0 W/m2
06:48 67.8 °F /  19.9 °C 53.4 °F /  11.9 °C 29.68in /  1005hPa ENE 2.9mph /  4.7km/h 5.0mph /  8km/h 60% 0.00in /  0mm 11.0 W/m2
06:54 67.8 °F /  19.9 °C 53.4 °F /  11.9 °C 29.67in /  1004.6hPa ENE 2.0mph /  3.2km/h 3.0mph /  4.8km/h 60% 0.00in /  0mm 18.0 W/m2
06:59 67.6 °F /  19.8 °C 53.8 °F /  12.1 °C 29.68in /  1005hPa ENE 0.9mph /  1.4km/h 6.0mph /  9.7km/h 61% 0.00in /  0mm 23.0 W/m2
07:04 67.6 °F /  19.8 °C 53.8 °F /  12.1 °C 29.68in /  1005hPa Calm     61% 0.00in /  0mm 30.0 W/m2
07:10 67.6 °F /  19.8 °C 53.8 °F /  12.1 °C 29.68in /  1005hPa Calm   3.0mph /  4.8km/h 61% 0.00in /  0mm 39.0 W/m2
07:15 67.6 °F /  19.8 °C 54.1 °F /  12.3 °C 29.68in /  1005hPa Calm   1.0mph /  1.6km/h 62% 0.00in /  0mm 46.0 W/m2
07:20 67.6 °F /  19.8 °C 54.1 °F /  12.3 °C 29.68in /  1005hPa Calm   2.0mph /  3.2km/h 62% 0.00in /  0mm 54.0 W/m2
07:26 67.6 °F /  19.8 °C 53.8 °F /  12.1 °C 29.68in /  1005hPa Calm   1.0mph /  1.6km/h 61% 0.00in /  0mm 63.0 W/m2
07:31 67.8 °F /  19.9 °C 54.0 °F /  12.2 °C 29.68in /  1005hPa Calm     61% 0.00in /  0mm 70.0 W/m2
07:36 67.8 °F /  19.9 °C 54.3 °F /  12.4 °C 29.68in /  1005hPa Calm     62% 0.00in /  0mm 81.0 W/m2
07:42 68.0 °F /  20 °C 54.5 °F /  12.5 °C 29.68in /  1005hPa Calm     62% 0.00in /  0mm 93.0 W/m2
07:47 68.2 °F /  20.1 °C 54.7 °F /  12.6 °C 29.68in /  1005hPa Calm     62% 0.00in /  0mm 111.0 W/m2
07:52 68.4 °F /  20.2 °C 54.9 °F /  12.7 °C 29.68in /  1005hPa Calm   1.0mph /  1.6km/h 62% 0.00in /  0mm 125.0 W/m2
07:58 68.5 °F /  20.3 °C 54.1 °F /  12.3 °C 29.67in /  1004.6hPa Calm   2.0mph /  3.2km/h 60% 0.00in /  0mm 142.0 W/m2
08:04 68.9 °F /  20.5 °C 54.0 °F /  12.2 °C 29.68in /  1005hPa Calm     59% 0.00in /  0mm 153.0 W/m2
08:09 69.3 °F /  20.7 °C 54.3 °F /  12.4 °C 29.68in /  1005hPa SW 0.9mph /  1.4km/h 2.0mph /  3.2km/h 59% 0.00in /  0mm 156.0 W/m2
08:14 69.6 °F /  20.9 °C 54.7 °F /  12.6 °C 29.68in /  1005hPa WSW 2.0mph /  3.2km/h 3.0mph /  4.8km/h 59% 0.00in /  0mm 162.0 W/m2
08:19 70.0 °F /  21.1 °C 55.4 °F /  13 °C 29.68in /  1005hPa Calm   3.0mph /  4.8km/h 60% 0.00in /  0mm 151.0 W/m2
08:24 70.2 °F /  21.2 °C 54.7 °F /  12.6 °C 29.68in /  1005hPa Calm     58% 0.00in /  0mm 163.0 W/m2
08:30 70.5 °F /  21.4 °C 55.0 °F /  12.8 °C 29.68in /  1005hPa Calm   1.0mph /  1.6km/h 58% 0.00in /  0mm 172.0 W/m2
08:35 71.1 °F /  21.7 °C 54.1 °F /  12.3 °C 29.68in /  1005hPa SW 3.0mph /  4.8km/h 3.0mph /  4.8km/h 55% 0.00in /  0mm 202.0 W/m2
08:40 71.2 °F /  21.8 °C 53.8 °F /  12.1 °C 29.68in /  1005hPa Calm     54% 0.00in /  0mm 176.0 W/m2
08:46 71.8 °F /  22.1 °C 54.3 °F /  12.4 °C 29.68in /  1005hPa Calm     54% 0.00in /  0mm 185.0 W/m2
08:51 72.1 °F /  22.3 °C 54.5 °F /  12.5 °C 29.68in /  1005hPa WNW 0.9mph /  1.4km/h 1.0mph /  1.6km/h 54% 0.00in /  0mm 195.0 W/m2
08:56 72.3 °F /  22.4 °C 54.1 °F /  12.3 °C 29.68in /  1005hPa West 0.9mph /  1.4km/h 2.0mph /  3.2km/h 53% 0.00in /  0mm 207.0 W/m2
09:02 72.9 °F /  22.7 °C 54.1 °F /  12.3 °C 29.68in /  1005hPa Calm     52% 0.00in /  0mm 237.0 W/m2
09:07 73.2 °F /  22.9 °C 54.5 °F /  12.5 °C 29.68in /  1005hPa South 0.9mph /  1.4km/h 1.0mph /  1.6km/h 52% 0.00in /  0mm 274.0 W/m2
09:12 73.9 °F /  23.3 °C 53.6 °F /  12 °C 29.68in /  1005hPa Calm     49% 0.00in /  0mm 378.0 W/m2
09:18 74.7 °F /  23.7 °C 52.5 °F /  11.4 °C 29.68in /  1005hPa Calm   2.0mph /  3.2km/h 46% 0.00in /  0mm 316.0 W/m2
09:24 75.6 °F /  24.2 °C 53.2 °F /  11.8 °C 29.69in /  1005.3hPa Calm     46% 0.00in /  0mm 536.0 W/m2
09:29 76.5 °F /  24.7 °C 53.6 °F /  12 °C 29.68in /  1005hPa Calm   1.0mph /  1.6km/h 45% 0.00in /  0mm 591.0 W/m2
09:34 77.4 °F /  25.2 °C 53.8 °F /  12.1 °C 29.68in /  1005hPa Calm   2.0mph /  3.2km/h 44% 0.00in /  0mm 362.0 W/m2
09:39 78.1 °F /  25.6 °C 53.1 °F /  11.7 °C 29.69in /  1005.3hPa Calm   1.0mph /  1.6km/h 42% 0.00in /  0mm 246.0 W/m2
09:44 78.4 °F /  25.8 °C 52.7 °F /  11.5 °C 29.68in /  1005hPa East 0.9mph /  1.4km/h 2.0mph /  3.2km/h 41% 0.00in /  0mm 234.0 W/m2
09:50 79.0 °F /  26.1 °C 48.2 °F /  9 °C 29.68in /  1005hPa East 4.0mph /  6.4km/h 6.0mph /  9.7km/h 34% 0.00in /  0mm 294.0 W/m2
09:55 79.7 °F /  26.5 °C 48.0 °F /  8.9 °C 29.68in /  1005hPa SE 2.9mph /  4.7km/h 9.0mph /  14.5km/h 33% 0.00in /  0mm 357.0 W/m2
10:00 80.4 °F /  26.9 °C 46.9 °F /  8.3 °C 29.69in /  1005.3hPa ESE 8.1mph /  13km/h 11.0mph /  17.7km/h 31% 0.00in /  0mm 844.0 W/m2
10:06 81.3 °F /  27.4 °C 47.8 °F /  8.8 °C 29.69in /  1005.3hPa SE 0.9mph /  1.4km/h 11.0mph /  17.7km/h 31% 0.00in /  0mm 387.0 W/m2
10:11 81.7 °F /  27.6 °C 48.0 °F /  8.9 °C 29.68in /  1005hPa ENE 4.0mph /  6.4km/h 9.0mph /  14.5km/h 31% 0.00in /  0mm 722.0 W/m2
10:16 82.0 °F /  27.8 °C 47.5 °F /  8.6 °C 29.69in /  1005.3hPa ESE 2.9mph /  4.7km/h 11.0mph /  17.7km/h 30% 0.00in /  0mm 587.0 W/m2
10:22 82.8 °F /  28.2 °C 49.1 °F /  9.5 °C 29.69in /  1005.3hPa ENE 0.9mph /  1.4km/h 8.0mph /  12.9km/h 31% 0.00in /  0mm 645.0 W/m2
10:28 83.1 °F /  28.4 °C 49.3 °F /  9.6 °C 29.69in /  1005.3hPa NE 0.9mph /  1.4km/h 11.0mph /  17.7km/h 31% 0.00in /  0mm 519.0 W/m2
10:33 83.1 °F /  28.4 °C 50.2 °F /  10.1 °C 29.69in /  1005.3hPa SE 4.9mph /  7.9km/h 13.0mph /  20.9km/h 32% 0.00in /  0mm 661.0 W/m2
10:39 83.5 °F /  28.6 °C 52.2 °F /  11.2 °C 29.69in /  1005.3hPa East 0.9mph /  1.4km/h 8.0mph /  12.9km/h 34% 0.00in /  0mm 424.0 W/m2
10:44 83.5 °F /  28.6 °C 51.4 °F /  10.8 °C 29.68in /  1005hPa East 2.9mph /  4.7km/h 11.0mph /  17.7km/h 33% 0.00in /  0mm 506.0 W/m2
10:49 83.7 °F /  28.7 °C 52.3 °F /  11.3 °C 29.69in /  1005.3hPa NE 0.9mph /  1.4km/h 9.0mph /  14.5km/h 34% 0.00in /  0mm 540.0 W/m2
10:54 84.0 °F /  28.9 °C 52.7 °F /  11.5 °C 29.68in /  1005hPa ESE 2.9mph /  4.7km/h 9.0mph /  14.5km/h 34% 0.00in /  0mm 642.0 W/m2
11:00 84.6 °F /  29.2 °C 53.1 °F /  11.7 °C 29.69in /  1005.3hPa NNE 2.0mph /  3.2km/h 5.0mph /  8km/h 34% 0.00in /  0mm 854.0 W/m2
11:05 85.3 °F /  29.6 °C 52.9 °F /  11.6 °C 29.68in /  1005hPa NE 4.9mph /  7.9km/h 9.0mph /  14.5km/h 33% 0.00in /  0mm 666.0 W/m2
11:10 85.6 °F /  29.8 °C 53.2 °F /  11.8 °C 29.69in /  1005.3hPa NNE 6.0mph /  9.7km/h 11.0mph /  17.7km/h 33% 0.00in /  0mm 656.0 W/m2
11:16 86.2 °F /  30.1 °C 52.9 °F /  11.6 °C 29.68in /  1005hPa ENE 6.9mph /  11.1km/h 14.0mph /  22.5km/h 32% 0.00in /  0mm 745.0 W/m2
11:21 86.4 °F /  30.2 °C 53.1 °F /  11.7 °C 29.68in /  1005hPa East 8.1mph /  13km/h 10.0mph /  16.1km/h 32% 0.00in /  0mm 756.0 W/m2
11:26 86.5 °F /  30.3 °C 53.2 °F /  11.8 °C 29.68in /  1005hPa ESE 6.9mph /  11.1km/h 11.0mph /  17.7km/h 32% 0.00in /  0mm 689.0 W/m2
11:32 86.5 °F /  30.3 °C 54.0 °F /  12.2 °C 29.68in /  1005hPa SSE 2.0mph /  3.2km/h 10.0mph /  16.1km/h 33% 0.00in /  0mm 722.0 W/m2
11:37 86.5 °F /  30.3 °C 53.2 °F /  11.8 °C 29.68in /  1005hPa Calm   9.0mph /  14.5km/h 32% 0.00in /  0mm 661.0 W/m2
11:42 86.5 °F /  30.3 °C 53.2 °F /  11.8 °C 29.67in /  1004.6hPa NNE 4.0mph /  6.4km/h 10.0mph /  16.1km/h 32% 0.00in /  0mm 742.0 W/m2
11:47 86.7 °F /  30.4 °C 52.5 °F /  11.4 °C 29.67in /  1004.6hPa NE 6.0mph /  9.7km/h 11.0mph /  17.7km/h 31% 0.00in /  0mm 877.0 W/m2
11:53 87.1 °F /  30.6 °C 52.7 °F /  11.5 °C 29.67in /  1004.6hPa North 4.9mph /  7.9km/h 9.0mph /  14.5km/h 31% 0.00in /  0mm 963.0 W/m2
11:58 87.4 °F /  30.8 °C 53.1 °F /  11.7 °C 29.67in /  1004.6hPa North 0.9mph /  1.4km/h 8.0mph /  12.9km/h 31% 0.00in /  0mm 1252.0 W/m2
12:03 88.2 °F /  31.2 °C 52.9 °F /  11.6 °C 29.67in /  1004.6hPa ENE 6.0mph /  9.7km/h 10.0mph /  16.1km/h 30% 0.00in /  0mm 1134.0 W/m2
12:08 88.3 °F /  31.3 °C 53.1 °F /  11.7 °C 29.67in /  1004.6hPa ENE 6.0mph /  9.7km/h 6.0mph /  9.7km/h 30% 0.00in /  0mm 654.0 W/m2
12:14 89.1 °F /  31.7 °C 52.7 °F /  11.5 °C 29.66in /  1004.3hPa NNE 2.9mph /  4.7km/h 7.0mph /  11.3km/h 29% 0.00in /  0mm 582.0 W/m2
12:19 89.1 °F /  31.7 °C 52.7 °F /  11.5 °C 29.66in /  1004.3hPa NNE 4.9mph /  7.9km/h 10.0mph /  16.1km/h 29% 0.00in /  0mm 635.0 W/m2
12:24 89.1 °F /  31.7 °C 52.7 °F /  11.5 °C 29.66in /  1004.3hPa NE 6.0mph /  9.7km/h 9.0mph /  14.5km/h 29% 0.00in /  0mm 737.0 W/m2
12:29 89.1 °F /  31.7 °C 53.6 °F /  12 °C 29.66in /  1004.3hPa North 6.0mph /  9.7km/h 10.0mph /  16.1km/h 30% 0.00in /  0mm 703.0 W/m2
12:34 88.9 °F /  31.6 °C 52.5 °F /  11.4 °C 29.66in /  1004.3hPa Calm   3.0mph /  4.8km/h 29% 0.00in /  0mm 640.0 W/m2
12:39 88.9 °F /  31.6 °C 53.4 °F /  11.9 °C 29.66in /  1004.3hPa NNE 6.9mph /  11.1km/h 9.0mph /  14.5km/h 30% 0.00in /  0mm 547.0 W/m2
12:45 88.5 °F /  31.4 °C 52.2 °F /  11.2 °C 29.66in /  1004.3hPa NNW 6.9mph /  11.1km/h 15.0mph /  24.1km/h 29% 0.00in /  0mm 679.0 W/m2
12:50 88.9 °F /  31.6 °C 53.4 °F /  11.9 °C 29.65in /  1003.9hPa NE 6.0mph /  9.7km/h 11.0mph /  17.7km/h 30% 0.00in /  0mm 1051.0 W/m2
12:55 89.2 °F /  31.8 °C 52.9 °F /  11.6 °C 29.65in /  1003.9hPa NNW 2.0mph /  3.2km/h 9.0mph /  14.5km/h 29% 0.00in /  0mm 737.0 W/m2
13:00 89.4 °F /  31.9 °C 54.0 °F /  12.2 °C 29.65in /  1003.9hPa SE 0.9mph /  1.4km/h 8.0mph /  12.9km/h 30% 0.00in /  0mm 707.0 W/m2
13:06 89.2 °F /  31.8 °C 52.9 °F /  11.6 °C 29.65in /  1003.9hPa NNE 6.0mph /  9.7km/h 7.0mph /  11.3km/h 29% 0.00in /  0mm 415.0 W/m2
13:11 89.8 °F /  32.1 °C 53.2 °F /  11.8 °C 29.65in /  1003.9hPa NNW 4.0mph /  6.4km/h 10.0mph /  16.1km/h 29% 0.00in /  0mm 1452.0 W/m2
13:16 90.1 °F /  32.3 °C 53.6 °F /  12 °C 29.65in /  1003.9hPa NNW 2.9mph /  4.7km/h 13.0mph /  20.9km/h 29% 0.00in /  0mm 809.0 W/m2
13:21 90.1 °F /  32.3 °C 52.7 °F /  11.5 °C 29.65in /  1003.9hPa SSE 2.0mph /  3.2km/h 7.0mph /  11.3km/h 28% 0.00in /  0mm 547.0 W/m2
13:26 89.8 °F /  32.1 °C 53.2 °F /  11.8 °C 29.64in /  1003.6hPa NE 6.0mph /  9.7km/h 9.0mph /  14.5km/h 29% 0.00in /  0mm 610.0 W/m2
13:31 89.4 °F /  31.9 °C 53.1 °F /  11.7 °C 29.65in /  1003.9hPa ENE 4.0mph /  6.4km/h 9.0mph /  14.5km/h 29% 0.00in /  0mm 661.0 W/m2
13:37 90.1 °F /  32.3 °C 52.7 °F /  11.5 °C 29.64in /  1003.6hPa NE 2.9mph /  4.7km/h 6.0mph /  9.7km/h 28% 0.00in /  0mm 691.0 W/m2
13:42 90.5 °F /  32.5 °C 52.9 °F /  11.6 °C 29.64in /  1003.6hPa East 2.9mph /  4.7km/h 13.0mph /  20.9km/h 28% 0.00in /  0mm 1232.0 W/m2
13:47 90.9 °F /  32.7 °C 53.2 °F /  11.8 °C 29.64in /  1003.6hPa NE 6.0mph /  9.7km/h 11.0mph /  17.7km/h 28% 0.00in /  0mm 780.0 W/m2
13:53 90.9 °F /  32.7 °C 53.2 °F /  11.8 °C 29.64in /  1003.6hPa North 11.0mph /  17.7km/h 12.0mph /  19.3km/h 28% 0.00in /  0mm 884.0 W/m2
13:59 90.9 °F /  32.7 °C 52.3 °F /  11.3 °C 29.63in /  1003.3hPa NE 4.0mph /  6.4km/h 12.0mph /  19.3km/h 27% 0.00in /  0mm 942.0 W/m2
14:04 91.2 °F /  32.9 °C 52.5 °F /  11.4 °C 29.63in /  1003.3hPa NNE 6.9mph /  11.1km/h 7.0mph /  11.3km/h 27% 0.00in /  0mm 1025.0 W/m2
14:09 91.0 °F /  32.8 °C 53.4 °F /  11.9 °C 29.64in /  1003.6hPa ENE 8.1mph /  13km/h 13.0mph /  20.9km/h 28% 0.00in /  0mm 329.0 W/m2
14:14 90.0 °F /  32.2 °C 52.5 °F /  11.4 °C 29.63in /  1003.3hPa NE 0.9mph /  1.4km/h 9.0mph /  14.5km/h 28% 0.00in /  0mm 357.0 W/m2
14:19 89.4 °F /  31.9 °C 53.1 °F /  11.7 °C 29.63in /  1003.3hPa SE 2.9mph /  4.7km/h 7.0mph /  11.3km/h 29% 0.00in /  0mm 364.0 W/m2
14:24 89.6 °F /  32 °C 53.1 °F /  11.7 °C 29.63in /  1003.3hPa NNE 4.9mph /  7.9km/h 7.0mph /  11.3km/h 29% 0.00in /  0mm 896.0 W/m2
14:29 90.0 °F /  32.2 °C 52.5 °F /  11.4 °C 29.62in /  1002.9hPa SE 2.9mph /  4.7km/h 8.0mph /  12.9km/h 28% 0.00in /  0mm 983.0 W/m2
14:34 90.1 °F /  32.3 °C 52.7 °F /  11.5 °C 29.62in /  1002.9hPa East 2.9mph /  4.7km/h 12.0mph /  19.3km/h 28% 0.00in /  0mm 1028.0 W/m2
14:39 90.3 °F /  32.4 °C 52.9 °F /  11.6 °C 29.62in /  1002.9hPa NE 4.9mph /  7.9km/h 10.0mph /  16.1km/h 28% 0.00in /  0mm 1030.0 W/m2
14:45 91.2 °F /  32.9 °C 52.5 °F /  11.4 °C 29.62in /  1002.9hPa ESE 6.0mph /  9.7km/h 11.0mph /  17.7km/h 27% 0.00in /  0mm 657.0 W/m2
14:50 91.2 °F /  32.9 °C 52.5 °F /  11.4 °C 29.62in /  1002.9hPa East 6.0mph /  9.7km/h 10.0mph /  16.1km/h 27% 0.00in /  0mm 589.0 W/m2
14:55 91.0 °F /  32.8 °C 52.3 °F /  11.3 °C 29.61in /  1002.6hPa NE 4.0mph /  6.4km/h 9.0mph /  14.5km/h 27% 0.00in /  0mm 503.0 W/m2
15:00 90.9 °F /  32.7 °C 52.3 °F /  11.3 °C 29.62in /  1002.9hPa ENE 6.0mph /  9.7km/h 11.0mph /  17.7km/h 27% 0.00in /  0mm 413.0 W/m2
15:05 90.9 °F /  32.7 °C 53.2 °F /  11.8 °C 29.61in /  1002.6hPa SSE 2.9mph /  4.7km/h 9.0mph /  14.5km/h 28% 0.00in /  0mm 360.0 W/m2
15:10 90.7 °F /  32.6 °C 53.1 °F /  11.7 °C 29.61in /  1002.6hPa NNW 0.9mph /  1.4km/h 5.0mph /  8km/h 28% 0.00in /  0mm 582.0 W/m2
15:15 90.9 °F /  32.7 °C 53.2 °F /  11.8 °C 29.60in /  1002.3hPa North 4.0mph /  6.4km/h 6.0mph /  9.7km/h 28% 0.00in /  0mm 962.0 W/m2
15:20 91.8 °F /  33.2 °C 52.0 °F /  11.1 °C 29.60in /  1002.3hPa SSE 6.9mph /  11.1km/h 9.0mph /  14.5km/h 26% 0.00in /  0mm 954.0 W/m2
15:25 92.5 °F /  33.6 °C 52.5 °F /  11.4 °C 29.60in /  1002.3hPa ESE 0.9mph /  1.4km/h 6.0mph /  9.7km/h 26% 0.00in /  0mm 988.0 W/m2
15:30 92.7 °F /  33.7 °C 52.7 °F /  11.5 °C 29.59in /  1001.9hPa NNE 4.9mph /  7.9km/h 10.0mph /  16.1km/h 26% 0.00in /  0mm 933.0 W/m2
15:35 92.7 °F /  33.7 °C 52.7 °F /  11.5 °C 29.59in /  1001.9hPa NE 4.9mph /  7.9km/h 8.0mph /  12.9km/h 26% 0.00in /  0mm 772.0 W/m2
15:40 92.5 °F /  33.6 °C 52.5 °F /  11.4 °C 29.59in /  1001.9hPa ESE 4.0mph /  6.4km/h 8.0mph /  12.9km/h 26% 0.00in /  0mm 626.0 W/m2
15:46 92.3 °F /  33.5 °C 52.5 °F /  11.4 °C 29.58in /  1001.6hPa NE 0.9mph /  1.4km/h 10.0mph /  16.1km/h 26% 0.00in /  0mm 756.0 W/m2
15:51 92.1 °F /  33.4 °C 51.3 °F /  10.7 °C 29.58in /  1001.6hPa SSE 2.9mph /  4.7km/h 7.0mph /  11.3km/h 25% 0.00in /  0mm 369.0 W/m2
15:56 91.9 °F /  33.3 °C 51.1 °F /  10.6 °C 29.57in /  1001.2hPa NE 4.0mph /  6.4km/h 5.0mph /  8km/h 25% 0.00in /  0mm 285.0 W/m2
16:01 91.9 °F /  33.3 °C 52.2 °F /  11.2 °C 29.57in /  1001.2hPa NE 2.0mph /  3.2km/h 4.0mph /  6.4km/h 26% 0.00in /  0mm 364.0 W/m2
16:06 91.9 °F /  33.3 °C 51.1 °F /  10.6 °C 29.57in /  1001.2hPa SE 2.9mph /  4.7km/h 7.0mph /  11.3km/h 25% 0.00in /  0mm 338.0 W/m2
16:11 91.6 °F /  33.1 °C 49.6 °F /  9.8 °C 29.57in /  1001.2hPa ESE 2.9mph /  4.7km/h 8.0mph /  12.9km/h 24% 0.00in /  0mm 301.0 W/m2
16:16 91.2 °F /  32.9 °C 50.5 °F /  10.3 °C 29.57in /  1001.2hPa East 6.9mph /  11.1km/h 9.0mph /  14.5km/h 25% 0.00in /  0mm 295.0 W/m2
16:21 90.7 °F /  32.6 °C 52.2 °F /  11.2 °C 29.57in /  1001.2hPa ENE 2.9mph /  4.7km/h 8.0mph /  12.9km/h 27% 0.00in /  0mm 265.0 W/m2
16:26 90.3 °F /  32.4 °C 50.7 °F /  10.4 °C 29.56in /  1000.9hPa ENE 2.9mph /  4.7km/h 4.0mph /  6.4km/h 26% 0.00in /  0mm 294.0 W/m2
16:31 90.3 °F /  32.4 °C 51.8 °F /  11 °C 29.56in /  1000.9hPa Calm   7.0mph /  11.3km/h 27% 0.00in /  0mm 728.0 W/m2
16:37 90.7 °F /  32.6 °C 52.2 °F /  11.2 °C 29.56in /  1000.9hPa East 6.0mph /  9.7km/h 11.0mph /  17.7km/h 27% 0.00in /  0mm 538.0 W/m2
16:42 90.9 °F /  32.7 °C 51.3 °F /  10.7 °C 29.55in /  1000.6hPa SW 2.9mph /  4.7km/h 9.0mph /  14.5km/h 26% 0.00in /  0mm 353.0 W/m2
16:47 91.0 °F /  32.8 °C 50.4 °F /  10.2 °C 29.55in /  1000.6hPa ENE 0.9mph /  1.4km/h 5.0mph /  8km/h 25% 0.00in /  0mm 257.0 W/m2
16:52 91.0 °F /  32.8 °C 50.4 °F /  10.2 °C 29.55in /  1000.6hPa NE 4.9mph /  7.9km/h 5.0mph /  8km/h 25% 0.00in /  0mm 246.0 W/m2
16:57 91.0 °F /  32.8 °C 50.4 °F /  10.2 °C 29.54in /  1000.2hPa ESE 2.9mph /  4.7km/h 7.0mph /  11.3km/h 25% 0.00in /  0mm 255.0 W/m2
17:02 90.7 °F /  32.6 °C 51.1 °F /  10.6 °C 29.54in /  1000.2hPa SSE 0.9mph /  1.4km/h 8.0mph /  12.9km/h 26% 0.00in /  0mm 232.0 W/m2
17:07 90.1 °F /  32.3 °C 51.6 °F /  10.9 °C 29.54in /  1000.2hPa Calm   11.0mph /  17.7km/h 27% 0.00in /  0mm 188.0 W/m2
17:12 90.0 °F /  32.2 °C 52.5 °F /  11.4 °C 29.54in /  1000.2hPa NE 2.0mph /  3.2km/h 8.0mph /  12.9km/h 28% 0.00in /  0mm 167.0 W/m2
17:18 89.8 °F /  32.1 °C 52.3 °F /  11.3 °C 29.54in /  1000.2hPa Calm   6.0mph /  9.7km/h 28% 0.00in /  0mm 156.0 W/m2
17:23 89.8 °F /  32.1 °C 51.3 °F /  10.7 °C 29.54in /  1000.2hPa SSE 4.0mph /  6.4km/h 9.0mph /  14.5km/h 27% 0.00in /  0mm 107.0 W/m2
17:28 89.4 °F /  31.9 °C 51.1 °F /  10.6 °C 29.54in /  1000.2hPa East 4.0mph /  6.4km/h 8.0mph /  12.9km/h 27% 0.00in /  0mm 120.0 W/m2
17:33 89.2 °F /  31.8 °C 50.9 °F /  10.5 °C 29.54in /  1000.2hPa East 0.9mph /  1.4km/h 3.0mph /  4.8km/h 27% 0.00in /  0mm 144.0 W/m2
17:38 89.1 °F /  31.7 °C 50.7 °F /  10.4 °C 29.54in /  1000.2hPa ENE 0.9mph /  1.4km/h 13.0mph /  20.9km/h 27% 0.00in /  0mm 149.0 W/m2
17:43 88.9 °F /  31.6 °C 50.5 °F /  10.3 °C 29.54in /  1000.2hPa NNE 2.9mph /  4.7km/h 9.0mph /  14.5km/h 27% 0.00in /  0mm 137.0 W/m2
17:48 88.5 °F /  31.4 °C 53.1 °F /  11.7 °C 29.54in /  1000.2hPa East 12.1mph /  19.5km/h 17.0mph /  27.4km/h 30% 0.00in /  0mm 97.0 W/m2
17:53 87.6 °F /  30.9 °C 52.3 °F /  11.3 °C 29.55in /  1000.6hPa SSE 8.9mph /  14.3km/h 15.0mph /  24.1km/h 30% 0.00in /  0mm 81.0 W/m2
17:58 87.1 °F /  30.6 °C 53.6 °F /  12 °C 29.55in /  1000.6hPa East 6.9mph /  11.1km/h 10.0mph /  16.1km/h 32% 0.00in /  0mm 83.0 W/m2
18:03 86.5 °F /  30.3 °C 53.2 °F /  11.8 °C 29.55in /  1000.6hPa ENE 2.0mph /  3.2km/h 12.0mph /  19.3km/h 32% 0.00in /  0mm 74.0 W/m2
18:09 86.2 °F /  30.1 °C 52.9 °F /  11.6 °C 29.55in /  1000.6hPa East 4.0mph /  6.4km/h 8.0mph /  12.9km/h 32% 0.00in /  0mm 65.0 W/m2
18:14 85.8 °F /  29.9 °C 52.5 °F /  11.4 °C 29.55in /  1000.6hPa ESE 0.9mph /  1.4km/h 11.0mph /  17.7km/h 32% 0.00in /  0mm 62.0 W/m2
18:19 85.6 °F /  29.8 °C 52.3 °F /  11.3 °C 29.55in /  1000.6hPa Calm   8.0mph /  12.9km/h 32% 0.00in /  0mm 54.0 W/m2
18:24 85.5 °F /  29.7 °C 52.2 °F /  11.2 °C 29.56in /  1000.9hPa NE 2.9mph /  4.7km/h 8.0mph /  12.9km/h 32% 0.00in /  0mm 25.0 W/m2
18:29 85.3 °F /  29.6 °C 52.2 °F /  11.2 °C 29.57in /  1001.2hPa NE 2.9mph /  4.7km/h 11.0mph /  17.7km/h 32% 0.00in /  0mm 14.0 W/m2
18:34 85.3 °F /  29.6 °C 52.2 °F /  11.2 °C 29.57in /  1001.2hPa SE 0.9mph /  1.4km/h 4.0mph /  6.4km/h 32% 0.00in /  0mm 7.0 W/m2
18:39 84.2 °F /  29 °C 55.8 °F /  13.2 °C 29.58in /  1001.6hPa West 4.9mph /  7.9km/h 8.0mph /  12.9km/h 38% 0.00in /  0mm 5.0 W/m2
18:44 82.2 °F /  27.9 °C 56.1 °F /  13.4 °C 29.59in /  1001.9hPa West 4.9mph /  7.9km/h 8.0mph /  12.9km/h 41% 0.00in /  0mm 5.0 W/m2
18:50 80.4 °F /  26.9 °C 57.2 °F /  14 °C 29.59in /  1001.9hPa WSW 6.9mph /  11.1km/h 8.0mph /  12.9km/h 45% 0.00in /  0mm 0.0 W/m2
18:55 78.6 °F /  25.9 °C 56.1 °F /  13.4 °C 29.60in /  1002.3hPa West 2.0mph /  3.2km/h 13.0mph /  20.9km/h 46% 0.00in /  0mm 0.0 W/m2
19:01 76.8 °F /  24.9 °C 57.4 °F /  14.1 °C 29.61in /  1002.6hPa SW 6.9mph /  11.1km/h 12.0mph /  19.3km/h 51% 0.00in /  0mm 0.0 W/m2
19:06 74.3 °F /  23.5 °C 56.7 °F /  13.7 °C 29.61in /  1002.6hPa WSW 8.1mph /  13km/h 14.0mph /  22.5km/h 54% 0.00in /  0mm 0.0 W/m2
19:12 72.3 °F /  22.4 °C 56.7 °F /  13.7 °C 29.62in /  1002.9hPa Calm   6.0mph /  9.7km/h 58% 0.00in /  0mm 0.0 W/m2
19:17 71.8 °F /  22.1 °C 56.7 °F /  13.7 °C 29.62in /  1002.9hPa Calm   5.0mph /  8km/h 59% 0.00in /  0mm 0.0 W/m2
19:22 71.4 °F /  21.9 °C 56.3 °F /  13.5 °C 29.62in /  1002.9hPa Calm   6.0mph /  9.7km/h 59% 0.00in /  0mm 0.0 W/m2
19:27 71.2 °F /  21.8 °C 55.8 °F /  13.2 °C 29.62in /  1002.9hPa SW 0.9mph /  1.4km/h 2.0mph /  3.2km/h 58% 0.00in /  0mm 0.0 W/m2
19:32 71.1 °F /  21.7 °C 55.6 °F /  13.1 °C 29.62in /  1002.9hPa West 0.9mph /  1.4km/h 1.0mph /  1.6km/h 58% 0.00in /  0mm 0.0 W/m2
19:37 71.1 °F /  21.7 °C 55.6 °F /  13.1 °C 29.62in /  1002.9hPa Calm   3.0mph /  4.8km/h 58% 0.00in /  0mm 0.0 W/m2
19:42 71.1 °F /  21.7 °C 55.0 °F /  12.8 °C 29.63in /  1003.3hPa ESE 0.9mph /  1.4km/h 4.0mph /  6.4km/h 57% 0.00in /  0mm 0.0 W/m2
19:47 71.4 °F /  21.9 °C 54.5 °F /  12.5 °C 29.62in /  1002.9hPa SE 2.0mph /  3.2km/h 3.0mph /  4.8km/h 55% 0.00in /  0mm 0.0 W/m2
19:52 72.0 °F /  22.2 °C 54.0 °F /  12.2 °C 29.63in /  1003.3hPa SE 2.0mph /  3.2km/h 5.0mph /  8km/h 53% 0.00in /  0mm 0.0 W/m2
19:58 72.1 °F /  22.3 °C 53.6 °F /  12 °C 29.63in /  1003.3hPa South 0.9mph /  1.4km/h 6.0mph /  9.7km/h 52% 0.00in /  0mm 0.0 W/m2
20:03 72.7 °F /  22.6 °C 52.9 °F /  11.6 °C 29.64in /  1003.6hPa Calm   2.0mph /  3.2km/h 50% 0.00in /  0mm 0.0 W/m2
20:08 73.0 °F /  22.8 °C 52.2 °F /  11.2 °C 29.65in /  1003.9hPa Calm   5.0mph /  8km/h 48% 0.00in /  0mm 0.0 W/m2
20:13 73.6 °F /  23.1 °C 52.2 °F /  11.2 °C 29.65in /  1003.9hPa Calm   1.0mph /  1.6km/h 47% 0.00in /  0mm 0.0 W/m2
20:18 73.8 °F /  23.2 °C 52.3 °F /  11.3 °C 29.65in /  1003.9hPa Calm   1.0mph /  1.6km/h 47% 0.00in /  0mm 0.0 W/m2
20:23 74.1 °F /  23.4 °C 52.0 °F /  11.1 °C 29.65in /  1003.9hPa Calm   5.0mph /  8km/h 46% 0.00in /  0mm 0.0 W/m2
20:28 74.5 °F /  23.6 °C 52.3 °F /  11.3 °C 29.65in /  1003.9hPa WSW 0.9mph /  1.4km/h 9.0mph /  14.5km/h 46% 0.00in /  0mm 0.0 W/m2
20:33 74.7 °F /  23.7 °C 52.5 °F /  11.4 °C 29.65in /  1003.9hPa WSW 0.9mph /  1.4km/h 5.0mph /  8km/h 46% 0.00in /  0mm 0.0 W/m2
20:39 74.7 °F /  23.7 °C 52.5 °F /  11.4 °C 29.65in /  1003.9hPa Calm   2.0mph /  3.2km/h 46% 0.00in /  0mm 0.0 W/m2
20:44 74.7 °F /  23.7 °C 53.1 °F /  11.7 °C 29.64in /  1003.6hPa Calm     47% 0.00in /  0mm 0.0 W/m2
20:49 74.7 °F /  23.7 °C 53.1 °F /  11.7 °C 29.64in /  1003.6hPa Calm   1.0mph /  1.6km/h 47% 0.00in /  0mm 0.0 W/m2
20:54 74.7 °F /  23.7 °C 54.3 °F /  12.4 °C 29.65in /  1003.9hPa Calm   3.0mph /  4.8km/h 49% 0.00in /  0mm 0.0 W/m2
20:59 74.5 °F /  23.6 °C 54.1 °F /  12.3 °C 29.64in /  1003.6hPa Calm     49% 0.00in /  0mm 0.0 W/m2
21:04 74.5 °F /  23.6 °C 54.7 °F /  12.6 °C 29.65in /  1003.9hPa Calm     50% 0.00in /  0mm 0.0 W/m2
21:09 74.5 °F /  23.6 °C 54.7 °F /  12.6 °C 29.65in /  1003.9hPa Calm   1.0mph /  1.6km/h 50% 0.00in /  0mm 0.0 W/m2
21:15 74.5 °F /  23.6 °C 55.2 °F /  12.9 °C 29.65in /  1003.9hPa Calm   2.0mph /  3.2km/h 51% 0.00in /  0mm 0.0 W/m2
21:20 74.1 °F /  23.4 °C 55.9 °F /  13.3 °C 29.65in /  1003.9hPa WNW 0.9mph /  1.4km/h 5.0mph /  8km/h 53% 0.00in /  0mm 0.0 W/m2
21:25 73.8 °F /  23.2 °C 55.6 °F /  13.1 °C 29.66in /  1004.3hPa WSW 2.9mph /  4.7km/h 6.0mph /  9.7km/h 53% 0.00in /  0mm 0.0 W/m2
21:30 73.6 °F /  23.1 °C 55.4 °F /  13 °C 29.66in /  1004.3hPa Calm   3.0mph /  4.8km/h 53% 0.00in /  0mm 0.0 W/m2
21:35 73.2 °F /  22.9 °C 55.6 °F /  13.1 °C 29.66in /  1004.3hPa WSW 0.9mph /  1.4km/h 3.0mph /  4.8km/h 54% 0.00in /  0mm 0.0 W/m2
21:40 73.2 °F /  22.9 °C 56.1 °F /  13.4 °C 29.66in /  1004.3hPa Calm   3.0mph /  4.8km/h 55% 0.00in /  0mm 0.0 W/m2
21:45 73.0 °F /  22.8 °C 55.9 °F /  13.3 °C 29.66in /  1004.3hPa NW 2.0mph /  3.2km/h 3.0mph /  4.8km/h 55% 0.00in /  0mm 0.0 W/m2
21:50 72.9 °F /  22.7 °C 55.8 °F /  13.2 °C 29.66in /  1004.3hPa Calm   3.0mph /  4.8km/h 55% 0.00in /  0mm 0.0 W/m2
21:55 72.9 °F /  22.7 °C 55.8 °F /  13.2 °C 29.66in /  1004.3hPa Calm   2.0mph /  3.2km/h 55% 0.00in /  0mm 0.0 W/m2
22:01 72.9 °F /  22.7 °C 55.2 °F /  12.9 °C 29.66in /  1004.3hPa Calm   1.0mph /  1.6km/h 54% 0.00in /  0mm 0.0 W/m2
22:06 72.9 °F /  22.7 °C 55.2 °F /  12.9 °C 29.66in /  1004.3hPa Calm   3.0mph /  4.8km/h 54% 0.00in /  0mm 0.0 W/m2
22:11 72.9 °F /  22.7 °C 55.2 °F /  12.9 °C 29.67in /  1004.6hPa Calm     54% 0.00in /  0mm 0.0 W/m2
22:16 72.9 °F /  22.7 °C 55.2 °F /  12.9 °C 29.67in /  1004.6hPa Calm   1.0mph /  1.6km/h 54% 0.00in /  0mm 0.0 W/m2
22:21 72.9 °F /  22.7 °C 55.2 °F /  12.9 °C 29.67in /  1004.6hPa Calm     54% 0.00in /  0mm 0.0 W/m2
22:27 72.9 °F /  22.7 °C 55.2 °F /  12.9 °C 29.67in /  1004.6hPa Calm     54% 0.00in /  0mm 0.0 W/m2
22:32 72.9 °F /  22.7 °C 55.8 °F /  13.2 °C 29.67in /  1004.6hPa NW 0.9mph /  1.4km/h 3.0mph /  4.8km/h 55% 0.00in /  0mm 0.0 W/m2
22:37 72.7 °F /  22.6 °C 55.6 °F /  13.1 °C 29.67in /  1004.6hPa WSW 2.0mph /  3.2km/h 3.0mph /  4.8km/h 55% 0.00in /  0mm 0.0 W/m2
22:42 72.7 °F /  22.6 °C 55.6 °F /  13.1 °C 29.67in /  1004.6hPa Calm   2.0mph /  3.2km/h 55% 0.00in /  0mm 0.0 W/m2
22:48 72.7 °F /  22.6 °C 55.6 °F /  13.1 °C 29.67in /  1004.6hPa Calm     55% 0.00in /  0mm 0.0 W/m2
22:53 72.7 °F /  22.6 °C 55.0 °F /  12.8 °C 29.68in /  1005hPa Calm   2.0mph /  3.2km/h 54% 0.00in /  0mm 0.0 W/m2
22:59 72.7 °F /  22.6 °C 55.0 °F /  12.8 °C 29.68in /  1005hPa NW 2.9mph /  4.7km/h 3.0mph /  4.8km/h 54% 0.00in /  0mm 0.0 W/m2
23:05 72.7 °F /  22.6 °C 55.0 °F /  12.8 °C 29.68in /  1005hPa Calm   1.0mph /  1.6km/h 54% 0.00in /  0mm 0.0 W/m2
23:10 72.7 °F /  22.6 °C 55.0 °F /  12.8 °C 29.68in /  1005hPa NE 0.9mph /  1.4km/h 5.0mph /  8km/h 54% 0.00in /  0mm 0.0 W/m2
23:15 72.3 °F /  22.4 °C 54.7 °F /  12.6 °C 29.68in /  1005hPa NNE 2.9mph /  4.7km/h 3.0mph /  4.8km/h 54% 0.00in /  0mm 0.0 W/m2
23:20 72.1 °F /  22.3 °C 54.5 °F /  12.5 °C 29.68in /  1005hPa NNE 2.0mph /  3.2km/h 3.0mph /  4.8km/h 54% 0.00in /  0mm 0.0 W/m2
23:25 72.1 °F /  22.3 °C 54.5 °F /  12.5 °C 29.68in /  1005hPa Calm   3.0mph /  4.8km/h 54% 0.00in /  0mm 0.0 W/m2
23:30 72.0 °F /  22.2 °C 54.9 °F /  12.7 °C 29.69in /  1005.3hPa Calm   1.0mph /  1.6km/h 55% 0.00in /  0mm 0.0 W/m2
23:35 72.0 °F /  22.2 °C 54.9 °F /  12.7 °C 29.69in /  1005.3hPa Calm   1.0mph /  1.6km/h 55% 0.00in /  0mm 0.0 W/m2
23:41 72.0 °F /  22.2 °C 54.3 °F /  12.4 °C 29.70in /  1005.6hPa Calm   3.0mph /  4.8km/h 54% 0.00in /  0mm 0.0 W/m2
23:46 72.0 °F /  22.2 °C 54.3 °F /  12.4 °C 29.69in /  1005.3hPa Calm     54% 0.00in /  0mm 0.0 W/m2
23:51 72.0 °F /  22.2 °C 54.3 °F /  12.4 °C 29.69in /  1005.3hPa Calm   1.0mph /  1.6km/h 54% 0.00in /  0mm 0.0 W/m2
23:56 72.0 °F /  22.2 °C 54.3 °F /  12.4 °C 29.68in /  1005hPa Calm     54% 0.00in /  0mm 0.0 W/m2
Olympia, Windhoek, Namibia
Compliments of Weather Underground - 3.25 mb